sensor_id;sensor_type;location;lat;lon;timestamp;temperature;humidity
10030;DHT22;5055;52.054;8.524;2023-04-24T00:02:23;11.50;97.00
10030;DHT22;5055;52.054;8.524;2023-04-24T00:04:52;11.50;97.00
10030;DHT22;5055;52.054;8.524;2023-04-24T00:07:22;11.40;97.00
10030;DHT22;5055;52.054;8.524;2023-04-24T00:09:50;11.40;97.00
10030;DHT22;5055;52.054;8.524;2023-04-24T00:12:18;11.40;97.00
10030;DHT22;5055;52.054;8.524;2023-04-24T00:14:46;11.40;97.00
10030;DHT22;5055;52.054;8.524;2023-04-24T00:17:14;11.30;97.00
10030;DHT22;5055;52.054;8.524;2023-04-24T00:19:42;11.30;97.00
10030;DHT22;5055;52.054;8.524;2023-04-24T00:22:11;11.30;97.00
10030;DHT22;5055;52.054;8.524;2023-04-24T00:24:41;11.30;97.00
10030;DHT22;5055;52.054;8.524;2023-04-24T00:27:09;11.30;97.00
10030;DHT22;5055;52.054;8.524;2023-04-24T00:29:37;11.20;97.00
10030;DHT22;5055;52.054;8.524;2023-04-24T00:32:06;11.20;97.00
10030;DHT22;5055;52.054;8.524;2023-04-24T00:34:34;11.10;97.00
10030;DHT22;5055;52.054;8.524;2023-04-24T00:37:02;11.20;97.00
10030;DHT22;5055;52.054;8.524;2023-04-24T00:39:30;11.20;97.00
10030;DHT22;5055;52.054;8.524;2023-04-24T00:42:00;11.20;97.00
10030;DHT22;5055;52.054;8.524;2023-04-24T00:44:29;11.20;97.00
10030;DHT22;5055;52.054;8.524;2023-04-24T00:46:58;11.20;97.00
10030;DHT22;5055;52.054;8.524;2023-04-24T00:49:27;11.20;97.00
10030;DHT22;5055;52.054;8.524;2023-04-24T00:51:55;11.20;97.00
10030;DHT22;5055;52.054;8.524;2023-04-24T00:54:23;11.20;97.00
10030;DHT22;5055;52.054;8.524;2023-04-24T00:56:51;11.20;97.00
10030;DHT22;5055;52.054;8.524;2023-04-24T00:59:21;11.30;97.00
10030;DHT22;5055;52.054;8.524;2023-04-24T01:01:50;11.30;97.00
10030;DHT22;5055;52.054;8.524;2023-04-24T01:04:19;11.40;97.00
10030;DHT22;5055;52.054;8.524;2023-04-24T01:06:48;11.40;97.00
10030;DHT22;5055;52.054;8.524;2023-04-24T01:09:20;11.40;97.00
10030;DHT22;5055;52.054;8.524;2023-04-24T01:11:49;11.40;97.00
10030;DHT22;5055;52.054;8.524;2023-04-24T01:14:17;11.40;97.00
10030;DHT22;5055;52.054;8.524;2023-04-24T01:16:47;11.40;97.00
10030;DHT22;5055;52.054;8.524;2023-04-24T01:19:15;11.40;97.00
10030;DHT22;5055;52.054;8.524;2023-04-24T01:21:47;11.30;97.00
10030;DHT22;5055;52.054;8.524;2023-04-24T01:24:20;11.30;97.00
10030;DHT22;5055;52.054;8.524;2023-04-24T01:26:49;11.30;97.00
10030;DHT22;5055;52.054;8.524;2023-04-24T01:29:17;11.30;97.00
10030;DHT22;5055;52.054;8.524;2023-04-24T01:31:45;11.30;97.00
10030;DHT22;5055;52.054;8.524;2023-04-24T01:34:14;11.30;97.00
10030;DHT22;5055;52.054;8.524;2023-04-24T01:36:43;11.30;97.00
10030;DHT22;5055;52.054;8.524;2023-04-24T01:39:14;11.30;97.00
10030;DHT22;5055;52.054;8.524;2023-04-24T01:41:44;11.20;97.00
10030;DHT22;5055;52.054;8.524;2023-04-24T01:44:12;11.20;97.00
10030;DHT22;5055;52.054;8.524;2023-04-24T01:46:42;11.20;97.00
10030;DHT22;5055;52.054;8.524;2023-04-24T01:49:10;11.10;97.00
10030;DHT22;5055;52.054;8.524;2023-04-24T01:51:38;11.10;97.00
10030;DHT22;5055;52.054;8.524;2023-04-24T01:54:06;11.10;97.00
10030;DHT22;5055;52.054;8.524;2023-04-24T01:56:35;11.00;97.00
10030;DHT22;5055;52.054;8.524;2023-04-24T01:59:06;11.00;97.00
10030;DHT22;5055;52.054;8.524;2023-04-24T02:01:36;11.00;97.00
10030;DHT22;5055;52.054;8.524;2023-04-24T02:04:04;11.00;97.00
10030;DHT22;5055;52.054;8.524;2023-04-24T02:06:33;10.90;97.00
10030;DHT22;5055;52.054;8.524;2023-04-24T02:09:01;10.90;97.00
10030;DHT22;5055;52.054;8.524;2023-04-24T02:11:30;10.80;97.00
10030;DHT22;5055;52.054;8.524;2023-04-24T02:13:58;10.80;97.00
10030;DHT22;5055;52.054;8.524;2023-04-24T02:16:28;10.80;97.00
10030;DHT22;5055;52.054;8.524;2023-04-24T02:18:59;10.70;97.00
10030;DHT22;5055;52.054;8.524;2023-04-24T02:21:27;10.60;97.00
10030;DHT22;5055;52.054;8.524;2023-04-24T02:23:57;10.60;97.00
10030;DHT22;5055;52.054;8.524;2023-04-24T02:26:25;10.60;97.00
10030;DHT22;5055;52.054;8.524;2023-04-24T02:28:53;10.60;97.00
10030;DHT22;5055;52.054;8.524;2023-04-24T02:31:21;10.60;97.00
10030;DHT22;5055;52.054;8.524;2023-04-24T02:33:51;10.50;97.00
10030;DHT22;5055;52.054;8.524;2023-04-24T02:36:19;10.50;97.00
10030;DHT22;5055;52.054;8.524;2023-04-24T02:38:47;10.40;97.00
10030;DHT22;5055;52.054;8.524;2023-04-24T02:41:15;10.30;97.00
10030;DHT22;5055;52.054;8.524;2023-04-24T02:43:43;10.30;97.00
10030;DHT22;5055;52.054;8.524;2023-04-24T02:46:11;10.20;97.00
10030;DHT22;5055;52.054;8.524;2023-04-24T02:48:40;10.10;97.00
10030;DHT22;5055;52.054;8.524;2023-04-24T02:51:09;10.10;97.00
10030;DHT22;5055;52.054;8.524;2023-04-24T02:53:37;10.10;97.00
10030;DHT22;5055;52.054;8.524;2023-04-24T02:56:05;10.00;97.00
10030;DHT22;5055;52.054;8.524;2023-04-24T02:58:33;10.00;97.00
10030;DHT22;5055;52.054;8.524;2023-04-24T03:01:02;10.10;97.00
10030;DHT22;5055;52.054;8.524;2023-04-24T03:03:30;10.10;97.00
10030;DHT22;5055;52.054;8.524;2023-04-24T03:05:58;10.10;97.00
10030;DHT22;5055;52.054;8.524;2023-04-24T03:08:28;10.10;97.00
10030;DHT22;5055;52.054;8.524;2023-04-24T03:10:56;10.20;97.00
10030;DHT22;5055;52.054;8.524;2023-04-24T03:13:24;10.20;97.00
10030;DHT22;5055;52.054;8.524;2023-04-24T03:15:52;10.20;97.00
10030;DHT22;5055;52.054;8.524;2023-04-24T03:18:20;10.30;97.00
10030;DHT22;5055;52.054;8.524;2023-04-24T03:20:49;10.40;97.00
10030;DHT22;5055;52.054;8.524;2023-04-24T03:23:17;10.40;97.00
10030;DHT22;5055;52.054;8.524;2023-04-24T03:25:46;10.40;97.00
10030;DHT22;5055;52.054;8.524;2023-04-24T03:28:15;10.50;97.00
10030;DHT22;5055;52.054;8.524;2023-04-24T03:30:43;10.50;97.00
10030;DHT22;5055;52.054;8.524;2023-04-24T03:33:11;10.50;97.00
10030;DHT22;5055;52.054;8.524;2023-04-24T03:35:39;10.50;97.00
10030;DHT22;5055;52.054;8.524;2023-04-24T03:38:07;10.60;97.00
10030;DHT22;5055;52.054;8.524;2023-04-24T03:40:35;10.60;97.00
10030;DHT22;5055;52.054;8.524;2023-04-24T03:43:05;10.60;97.00
10030;DHT22;5055;52.054;8.524;2023-04-24T03:45:33;10.60;97.00
10030;DHT22;5055;52.054;8.524;2023-04-24T03:48:01;10.60;97.00
10030;DHT22;5055;52.054;8.524;2023-04-24T03:50:29;10.60;97.00
10030;DHT22;5055;52.054;8.524;2023-04-24T03:52:57;10.60;97.00
10030;DHT22;5055;52.054;8.524;2023-04-24T03:55:25;10.60;97.00
10030;DHT22;5055;52.054;8.524;2023-04-24T03:57:53;10.60;97.00
10030;DHT22;5055;52.054;8.524;2023-04-24T04:00:22;10.50;97.00
10030;DHT22;5055;52.054;8.524;2023-04-24T04:02:51;10.50;97.00
10030;DHT22;5055;52.054;8.524;2023-04-24T04:05:19;10.40;97.00
10030;DHT22;5055;52.054;8.524;2023-04-24T04:07:48;10.40;97.00
10030;DHT22;5055;52.054;8.524;2023-04-24T04:10:16;10.30;97.00
10030;DHT22;5055;52.054;8.524;2023-04-24T04:12:44;10.30;97.00
10030;DHT22;5055;52.054;8.524;2023-04-24T04:15:12;10.30;97.00
10030;DHT22;5055;52.054;8.524;2023-04-24T04:17:41;10.20;97.00
10030;DHT22;5055;52.054;8.524;2023-04-24T04:20:10;10.20;97.00
10030;DHT22;5055;52.054;8.524;2023-04-24T04:22:38;10.20;97.00
10030;DHT22;5055;52.054;8.524;2023-04-24T04:25:10;10.20;97.00
10030;DHT22;5055;52.054;8.524;2023-04-24T04:27:40;10.30;97.00
10030;DHT22;5055;52.054;8.524;2023-04-24T04:30:08;10.30;97.00
10030;DHT22;5055;52.054;8.524;2023-04-24T04:32:36;10.30;97.00
10030;DHT22;5055;52.054;8.524;2023-04-24T04:35:06;10.30;97.00
10030;DHT22;5055;52.054;8.524;2023-04-24T04:37:36;10.40;97.00
10030;DHT22;5055;52.054;8.524;2023-04-24T04:40:06;10.40;97.00
10030;DHT22;5055;52.054;8.524;2023-04-24T04:42:34;10.50;97.00
10030;DHT22;5055;52.054;8.524;2023-04-24T04:45:02;10.50;97.00
10030;DHT22;5055;52.054;8.524;2023-04-24T04:47:30;10.40;97.00
10030;DHT22;5055;52.054;8.524;2023-04-24T04:49:59;10.50;97.00
10030;DHT22;5055;52.054;8.524;2023-04-24T04:52:28;10.50;97.00
10030;DHT22;5055;52.054;8.524;2023-04-24T04:54:56;10.50;97.00
10030;DHT22;5055;52.054;8.524;2023-04-24T04:57:25;10.40;97.00
10030;DHT22;5055;52.054;8.524;2023-04-24T04:59:53;10.30;97.00
10030;DHT22;5055;52.054;8.524;2023-04-24T05:02:21;10.20;97.00
10030;DHT22;5055;52.054;8.524;2023-04-24T05:04:49;10.20;97.00
10030;DHT22;5055;52.054;8.524;2023-04-24T05:07:18;10.10;97.00
10030;DHT22;5055;52.054;8.524;2023-04-24T05:09:47;10.00;97.00
10030;DHT22;5055;52.054;8.524;2023-04-24T05:12:15;10.00;97.00
10030;DHT22;5055;52.054;8.524;2023-04-24T05:14:43;9.90;97.00
10030;DHT22;5055;52.054;8.524;2023-04-24T05:17:11;9.90;97.00
10030;DHT22;5055;52.054;8.524;2023-04-24T05:19:39;9.90;97.00
10030;DHT22;5055;52.054;8.524;2023-04-24T05:22:08;9.90;97.00
10030;DHT22;5055;52.054;8.524;2023-04-24T05:24:37;9.90;97.00
10030;DHT22;5055;52.054;8.524;2023-04-24T05:27:07;9.90;97.00
10030;DHT22;5055;52.054;8.524;2023-04-24T05:29:35;9.90;97.00
10030;DHT22;5055;52.054;8.524;2023-04-24T05:32:03;9.90;97.00
10030;DHT22;5055;52.054;8.524;2023-04-24T05:34:31;9.90;97.00
10030;DHT22;5055;52.054;8.524;2023-04-24T05:36:59;9.90;97.00
10030;DHT22;5055;52.054;8.524;2023-04-24T05:39:27;9.90;97.00
10030;DHT22;5055;52.054;8.524;2023-04-24T05:41:55;9.90;97.00
10030;DHT22;5055;52.054;8.524;2023-04-24T05:44:26;9.90;97.00
10030;DHT22;5055;52.054;8.524;2023-04-24T05:46:54;9.90;97.00
10030;DHT22;5055;52.054;8.524;2023-04-24T05:49:22;9.90;97.00
10030;DHT22;5055;52.054;8.524;2023-04-24T05:51:51;9.90;97.00
10030;DHT22;5055;52.054;8.524;2023-04-24T05:54:19;10.00;97.00
10030;DHT22;5055;52.054;8.524;2023-04-24T05:56:47;10.00;97.00
10030;DHT22;5055;52.054;8.524;2023-04-24T05:59:15;10.00;97.00
10030;DHT22;5055;52.054;8.524;2023-04-24T06:01:44;10.00;97.00
10030;DHT22;5055;52.054;8.524;2023-04-24T06:04:12;10.10;97.00
10030;DHT22;5055;52.054;8.524;2023-04-24T06:06:41;10.10;97.00
10030;DHT22;5055;52.054;8.524;2023-04-24T06:09:09;10.10;97.00
10030;DHT22;5055;52.054;8.524;2023-04-24T06:11:38;10.10;97.00
10030;DHT22;5055;52.054;8.524;2023-04-24T06:14:06;10.10;97.00
10030;DHT22;5055;52.054;8.524;2023-04-24T06:16:34;10.20;97.00
10030;DHT22;5055;52.054;8.524;2023-04-24T06:19:04;10.20;97.00
10030;DHT22;5055;52.054;8.524;2023-04-24T06:21:32;10.20;97.00
10030;DHT22;5055;52.054;8.524;2023-04-24T06:24:00;10.20;97.00
10030;DHT22;5055;52.054;8.524;2023-04-24T06:26:28;10.20;97.00
10030;DHT22;5055;52.054;8.524;2023-04-24T06:28:57;10.30;97.00
10030;DHT22;5055;52.054;8.524;2023-04-24T06:31:26;10.30;97.00
10030;DHT22;5055;52.054;8.524;2023-04-24T06:33:54;10.30;97.00
10030;DHT22;5055;52.054;8.524;2023-04-24T06:36:24;10.30;97.00
10030;DHT22;5055;52.054;8.524;2023-04-24T06:38:52;10.30;97.00
10030;DHT22;5055;52.054;8.524;2023-04-24T06:41:20;10.20;97.00
10030;DHT22;5055;52.054;8.524;2023-04-24T06:43:48;10.20;97.00
10030;DHT22;5055;52.054;8.524;2023-04-24T06:46:16;10.20;97.00
10030;DHT22;5055;52.054;8.524;2023-04-24T06:48:45;10.20;97.00
10030;DHT22;5055;52.054;8.524;2023-04-24T06:51:13;10.20;97.00
10030;DHT22;5055;52.054;8.524;2023-04-24T06:53:42;10.20;97.00
10030;DHT22;5055;52.054;8.524;2023-04-24T06:56:10;10.20;97.00
10030;DHT22;5055;52.054;8.524;2023-04-24T06:58:38;10.30;97.00
10030;DHT22;5055;52.054;8.524;2023-04-24T07:01:07;10.30;97.00
10030;DHT22;5055;52.054;8.524;2023-04-24T07:03:35;10.30;97.00
10030;DHT22;5055;52.054;8.524;2023-04-24T07:06:04;10.30;97.00
10030;DHT22;5055;52.054;8.524;2023-04-24T07:08:32;10.30;97.00
10030;DHT22;5055;52.054;8.524;2023-04-24T07:11:02;10.30;97.00
10030;DHT22;5055;52.054;8.524;2023-04-24T07:13:30;10.30;97.00
10030;DHT22;5055;52.054;8.524;2023-04-24T07:15:58;10.30;97.00
10030;DHT22;5055;52.054;8.524;2023-04-24T07:18:26;10.30;97.00
10030;DHT22;5055;52.054;8.524;2023-04-24T07:20:55;10.30;97.00
10030;DHT22;5055;52.054;8.524;2023-04-24T07:23:23;10.30;97.00
10030;DHT22;5055;52.054;8.524;2023-04-24T07:25:51;10.30;97.00
10030;DHT22;5055;52.054;8.524;2023-04-24T07:28:20;10.30;97.00
10030;DHT22;5055;52.054;8.524;2023-04-24T07:30:48;10.30;97.00
10030;DHT22;5055;52.054;8.524;2023-04-24T07:33:16;10.40;97.00
10030;DHT22;5055;52.054;8.524;2023-04-24T07:35:44;10.40;97.00
10030;DHT22;5055;52.054;8.524;2023-04-24T07:38:12;10.40;97.00
10030;DHT22;5055;52.054;8.524;2023-04-24T07:40:40;10.50;97.00
10030;DHT22;5055;52.054;8.524;2023-04-24T07:43:09;10.50;97.00
10030;DHT22;5055;52.054;8.524;2023-04-24T07:45:39;10.60;97.00
10030;DHT22;5055;52.054;8.524;2023-04-24T07:48:07;10.70;97.00
10030;DHT22;5055;52.054;8.524;2023-04-24T07:50:35;10.80;97.00
10030;DHT22;5055;52.054;8.524;2023-04-24T07:53:03;10.80;97.00
10030;DHT22;5055;52.054;8.524;2023-04-24T07:55:32;10.80;97.00
10030;DHT22;5055;52.054;8.524;2023-04-24T07:58:00;10.90;97.00
10030;DHT22;5055;52.054;8.524;2023-04-24T08:00:28;10.80;97.00
10030;DHT22;5055;52.054;8.524;2023-04-24T08:02:57;10.70;97.00
10030;DHT22;5055;52.054;8.524;2023-04-24T08:05:26;10.70;97.00
10030;DHT22;5055;52.054;8.524;2023-04-24T08:07:55;10.60;97.00
10030;DHT22;5055;52.054;8.524;2023-04-24T08:10:24;10.70;97.00
10030;DHT22;5055;52.054;8.524;2023-04-24T08:12:52;10.70;97.00
10030;DHT22;5055;52.054;8.524;2023-04-24T08:15:22;10.70;97.00
10030;DHT22;5055;52.054;8.524;2023-04-24T08:17:50;10.60;97.00
10030;DHT22;5055;52.054;8.524;2023-04-24T08:20:19;10.60;97.00
10030;DHT22;5055;52.054;8.524;2023-04-24T08:22:47;10.60;97.00
10030;DHT22;5055;52.054;8.524;2023-04-24T08:25:15;10.60;97.00
10030;DHT22;5055;52.054;8.524;2023-04-24T08:27:44;10.60;97.00
10030;DHT22;5055;52.054;8.524;2023-04-24T08:30:12;10.50;97.00
10030;DHT22;5055;52.054;8.524;2023-04-24T08:32:40;10.50;97.00
10030;DHT22;5055;52.054;8.524;2023-04-24T08:35:09;10.50;97.00
10030;DHT22;5055;52.054;8.524;2023-04-24T08:37:38;10.50;97.00
10030;DHT22;5055;52.054;8.524;2023-04-24T08:40:13;10.60;97.00
10030;DHT22;5055;52.054;8.524;2023-04-24T08:42:42;10.80;97.00
10030;DHT22;5055;52.054;8.524;2023-04-24T08:45:12;10.80;97.00
10030;DHT22;5055;52.054;8.524;2023-04-24T08:47:41;11.10;97.00
10030;DHT22;5055;52.054;8.524;2023-04-24T08:50:10;11.40;97.00
10030;DHT22;5055;52.054;8.524;2023-04-24T08:52:42;11.50;97.00
10030;DHT22;5055;52.054;8.524;2023-04-24T08:55:10;11.60;97.00
10030;DHT22;5055;52.054;8.524;2023-04-24T08:57:38;11.40;97.00
10030;DHT22;5055;52.054;8.524;2023-04-24T09:00:08;11.30;97.00
10030;DHT22;5055;52.054;8.524;2023-04-24T09:02:41;11.20;97.00
10030;DHT22;5055;52.054;8.524;2023-04-24T09:05:10;11.10;97.00
10030;DHT22;5055;52.054;8.524;2023-04-24T09:07:41;11.00;97.00
10030;DHT22;5055;52.054;8.524;2023-04-24T09:10:09;10.90;97.00
10030;DHT22;5055;52.054;8.524;2023-04-24T09:12:38;10.80;97.00
10030;DHT22;5055;52.054;8.524;2023-04-24T09:15:07;10.60;97.00
10030;DHT22;5055;52.054;8.524;2023-04-24T09:17:36;10.60;97.00
10030;DHT22;5055;52.054;8.524;2023-04-24T09:20:05;10.60;97.00
10030;DHT22;5055;52.054;8.524;2023-04-24T09:22:34;10.60;97.00
10030;DHT22;5055;52.054;8.524;2023-04-24T09:25:05;10.50;97.00
10030;DHT22;5055;52.054;8.524;2023-04-24T09:27:34;10.60;97.00
10030;DHT22;5055;52.054;8.524;2023-04-24T09:30:03;10.70;97.00
10030;DHT22;5055;52.054;8.524;2023-04-24T09:32:32;10.70;97.00
10030;DHT22;5055;52.054;8.524;2023-04-24T09:35:08;10.70;97.00
10030;DHT22;5055;52.054;8.524;2023-04-24T09:37:37;10.70;97.00
10030;DHT22;5055;52.054;8.524;2023-04-24T09:40:12;10.70;97.00
10030;DHT22;5055;52.054;8.524;2023-04-24T09:45:11;10.60;97.00
10030;DHT22;5055;52.054;8.524;2023-04-24T09:47:41;10.60;97.00
10030;DHT22;5055;52.054;8.524;2023-04-24T09:50:14;10.60;97.00
10030;DHT22;5055;52.054;8.524;2023-04-24T09:52:45;10.50;97.00
10030;DHT22;5055;52.054;8.524;2023-04-24T09:55:18;10.60;97.00
10030;DHT22;5055;52.054;8.524;2023-04-24T09:57:50;10.50;97.00
10030;DHT22;5055;52.054;8.524;2023-04-24T10:00:22;10.50;97.00
10030;DHT22;5055;52.054;8.524;2023-04-24T10:02:51;10.40;97.00
10030;DHT22;5055;52.054;8.524;2023-04-24T10:05:23;10.30;97.00
10030;DHT22;5055;52.054;8.524;2023-04-24T10:07:51;10.40;97.00
10030;DHT22;5055;52.054;8.524;2023-04-24T10:10:25;10.30;97.00
10030;DHT22;5055;52.054;8.524;2023-04-24T10:12:53;10.30;97.00
10030;DHT22;5055;52.054;8.524;2023-04-24T10:15:22;10.30;97.00
10030;DHT22;5055;52.054;8.524;2023-04-24T10:17:51;10.30;97.00
10030;DHT22;5055;52.054;8.524;2023-04-24T10:20:21;10.20;97.00
10030;DHT22;5055;52.054;8.524;2023-04-24T10:22:50;10.10;97.00
10030;DHT22;5055;52.054;8.524;2023-04-24T10:25:21;10.10;97.00
10030;DHT22;5055;52.054;8.524;2023-04-24T10:27:51;10.20;97.00
10030;DHT22;5055;52.054;8.524;2023-04-24T10:30:20;10.50;97.00
10030;DHT22;5055;52.054;8.524;2023-04-24T10:32:48;10.80;97.00
10030;DHT22;5055;52.054;8.524;2023-04-24T10:35:17;10.90;97.00
10030;DHT22;5055;52.054;8.524;2023-04-24T10:37:51;10.90;97.00
10030;DHT22;5055;52.054;8.524;2023-04-24T10:40:26;10.80;97.00
10030;DHT22;5055;52.054;8.524;2023-04-24T10:42:56;10.80;97.00
10030;DHT22;5055;52.054;8.524;2023-04-24T10:45:25;10.80;97.00
10030;DHT22;5055;52.054;8.524;2023-04-24T10:47:56;10.60;97.00
10030;DHT22;5055;52.054;8.524;2023-04-24T10:50:29;10.30;97.00
10030;DHT22;5055;52.054;8.524;2023-04-24T10:53:12;10.10;97.00
10030;DHT22;5055;52.054;8.524;2023-04-24T10:55:45;10.10;97.00
10030;DHT22;5055;52.054;8.524;2023-04-24T10:58:16;10.20;97.00
10030;DHT22;5055;52.054;8.524;2023-04-24T11:00:48;10.10;97.00
10030;DHT22;5055;52.054;8.524;2023-04-24T11:03:27;10.00;97.00
10030;DHT22;5055;52.054;8.524;2023-04-24T11:05:58;9.90;97.00
10030;DHT22;5055;52.054;8.524;2023-04-24T11:08:31;9.90;97.00
10030;DHT22;5055;52.054;8.524;2023-04-24T11:11:03;9.90;97.00
10030;DHT22;5055;52.054;8.524;2023-04-24T11:14:08;9.90;97.00
10030;DHT22;5055;52.054;8.524;2023-04-24T11:16:40;9.80;97.00
10030;DHT22;5055;52.054;8.524;2023-04-24T11:19:20;9.80;97.00
10030;DHT22;5055;52.054;8.524;2023-04-24T11:21:56;9.80;97.00
10030;DHT22;5055;52.054;8.524;2023-04-24T11:24:30;9.80;97.00
10030;DHT22;5055;52.054;8.524;2023-04-24T11:27:05;9.70;97.00
10030;DHT22;5055;52.054;8.524;2023-04-24T11:29:43;9.70;97.00
10030;DHT22;5055;52.054;8.524;2023-04-24T11:32:16;9.80;97.00
10030;DHT22;5055;52.054;8.524;2023-04-24T11:34:47;9.90;97.00
10030;DHT22;5055;52.054;8.524;2023-04-24T11:37:15;9.80;97.00
10030;DHT22;5055;52.054;8.524;2023-04-24T11:39:43;9.70;97.00
10030;DHT22;5055;52.054;8.524;2023-04-24T11:42:14;9.70;97.00
10030;DHT22;5055;52.054;8.524;2023-04-24T11:44:52;9.60;97.00
10030;DHT22;5055;52.054;8.524;2023-04-24T11:47:27;9.50;97.00
10030;DHT22;5055;52.054;8.524;2023-04-24T11:49:56;9.30;97.00
10030;DHT22;5055;52.054;8.524;2023-04-24T11:52:26;9.20;97.00
10030;DHT22;5055;52.054;8.524;2023-04-24T11:54:54;9.10;97.00
10030;DHT22;5055;52.054;8.524;2023-04-24T11:57:24;9.00;97.00
10030;DHT22;5055;52.054;8.524;2023-04-24T11:59:55;8.90;97.00
10030;DHT22;5055;52.054;8.524;2023-04-24T12:02:26;8.90;97.00
10030;DHT22;5055;52.054;8.524;2023-04-24T12:04:54;8.80;97.00
10030;DHT22;5055;52.054;8.524;2023-04-24T12:07:23;8.80;97.00
10030;DHT22;5055;52.054;8.524;2023-04-24T12:09:56;8.80;97.00
10030;DHT22;5055;52.054;8.524;2023-04-24T12:12:26;8.80;97.00
10030;DHT22;5055;52.054;8.524;2023-04-24T12:14:57;8.70;97.00
10030;DHT22;5055;52.054;8.524;2023-04-24T12:17:27;8.70;97.00
10030;DHT22;5055;52.054;8.524;2023-04-24T12:20:01;8.70;97.00
10030;DHT22;5055;52.054;8.524;2023-04-24T12:22:43;8.70;97.00
10030;DHT22;5055;52.054;8.524;2023-04-24T12:25:12;8.60;97.00
10030;DHT22;5055;52.054;8.524;2023-04-24T12:27:41;8.60;97.00
10030;DHT22;5055;52.054;8.524;2023-04-24T12:30:13;8.60;97.00
10030;DHT22;5055;52.054;8.524;2023-04-24T12:32:42;8.60;97.00
10030;DHT22;5055;52.054;8.524;2023-04-24T12:35:11;8.60;97.00
10030;DHT22;5055;52.054;8.524;2023-04-24T12:37:42;8.60;97.00
10030;DHT22;5055;52.054;8.524;2023-04-24T12:40:13;8.60;97.00
10030;DHT22;5055;52.054;8.524;2023-04-24T12:42:43;8.70;97.00
10030;DHT22;5055;52.054;8.524;2023-04-24T12:45:14;8.70;97.00
10030;DHT22;5055;52.054;8.524;2023-04-24T12:47:43;8.80;97.00
10030;DHT22;5055;52.054;8.524;2023-04-24T12:50:12;8.80;97.00
10030;DHT22;5055;52.054;8.524;2023-04-24T12:52:41;8.80;97.00
10030;DHT22;5055;52.054;8.524;2023-04-24T12:55:10;8.90;97.00
10030;DHT22;5055;52.054;8.524;2023-04-24T12:57:39;8.80;97.00
10030;DHT22;5055;52.054;8.524;2023-04-24T13:00:09;8.80;97.00
10030;DHT22;5055;52.054;8.524;2023-04-24T13:02:38;8.90;97.00
10030;DHT22;5055;52.054;8.524;2023-04-24T13:05:08;8.90;97.00
10030;DHT22;5055;52.054;8.524;2023-04-24T13:07:38;8.90;97.00
10030;DHT22;5055;52.054;8.524;2023-04-24T13:10:07;9.00;97.00
10030;DHT22;5055;52.054;8.524;2023-04-24T13:12:35;9.00;97.00
10030;DHT22;5055;52.054;8.524;2023-04-24T13:15:05;9.00;97.00
10030;DHT22;5055;52.054;8.524;2023-04-24T13:17:33;9.00;97.00
10030;DHT22;5055;52.054;8.524;2023-04-24T13:20:03;8.90;97.00
10030;DHT22;5055;52.054;8.524;2023-04-24T13:22:31;9.00;97.00
10030;DHT22;5055;52.054;8.524;2023-04-24T13:24:59;8.90;97.00
10030;DHT22;5055;52.054;8.524;2023-04-24T13:27:28;8.90;97.00
10030;DHT22;5055;52.054;8.524;2023-04-24T13:29:56;8.90;97.00
10030;DHT22;5055;52.054;8.524;2023-04-24T13:32:24;9.00;97.00
10030;DHT22;5055;52.054;8.524;2023-04-24T13:34:52;8.90;97.00
10030;DHT22;5055;52.054;8.524;2023-04-24T13:37:21;8.90;97.00
10030;DHT22;5055;52.054;8.524;2023-04-24T13:39:49;8.80;97.00
10030;DHT22;5055;52.054;8.524;2023-04-24T13:42:18;8.70;97.00
10030;DHT22;5055;52.054;8.524;2023-04-24T13:44:46;8.70;97.00
10030;DHT22;5055;52.054;8.524;2023-04-24T13:47:14;8.70;97.00
10030;DHT22;5055;52.054;8.524;2023-04-24T13:49:42;8.60;97.00
10030;DHT22;5055;52.054;8.524;2023-04-24T13:52:11;8.70;97.00
10030;DHT22;5055;52.054;8.524;2023-04-24T13:54:41;8.60;97.00
10030;DHT22;5055;52.054;8.524;2023-04-24T13:57:10;8.70;97.00
10030;DHT22;5055;52.054;8.524;2023-04-24T13:59:38;8.70;97.00
10030;DHT22;5055;52.054;8.524;2023-04-24T14:02:06;8.80;97.00
10030;DHT22;5055;52.054;8.524;2023-04-24T14:04:35;8.80;97.00
10030;DHT22;5055;52.054;8.524;2023-04-24T14:07:03;8.90;97.00
10030;DHT22;5055;52.054;8.524;2023-04-24T14:09:31;8.90;97.00
10030;DHT22;5055;52.054;8.524;2023-04-24T14:12:01;9.00;97.00
10030;DHT22;5055;52.054;8.524;2023-04-24T14:14:30;9.10;97.00
10030;DHT22;5055;52.054;8.524;2023-04-24T14:16:58;9.20;97.00
10030;DHT22;5055;52.054;8.524;2023-04-24T14:19:26;9.40;97.00
10030;DHT22;5055;52.054;8.524;2023-04-24T14:21:54;9.60;97.00
10030;DHT22;5055;52.054;8.524;2023-04-24T14:24:25;9.70;97.00
10030;DHT22;5055;52.054;8.524;2023-04-24T14:26:53;9.70;97.00
10030;DHT22;5055;52.054;8.524;2023-04-24T14:29:22;9.70;97.00
10030;DHT22;5055;52.054;8.524;2023-04-24T14:31:52;9.70;97.00
10030;DHT22;5055;52.054;8.524;2023-04-24T14:34:20;9.70;97.00
10030;DHT22;5055;52.054;8.524;2023-04-24T14:36:49;9.60;97.00
10030;DHT22;5055;52.054;8.524;2023-04-24T14:39:17;9.50;97.00
10030;DHT22;5055;52.054;8.524;2023-04-24T14:41:45;9.50;97.00
10030;DHT22;5055;52.054;8.524;2023-04-24T14:44:13;9.50;97.00
10030;DHT22;5055;52.054;8.524;2023-04-24T14:46:43;9.50;97.00
10030;DHT22;5055;52.054;8.524;2023-04-24T14:49:11;9.40;97.00
10030;DHT22;5055;52.054;8.524;2023-04-24T14:51:39;9.40;97.00
10030;DHT22;5055;52.054;8.524;2023-04-24T14:54:08;9.40;97.00
10030;DHT22;5055;52.054;8.524;2023-04-24T14:56:35;9.40;97.00
10030;DHT22;5055;52.054;8.524;2023-04-24T14:59:07;9.30;97.00
10030;DHT22;5055;52.054;8.524;2023-04-24T15:01:35;9.30;97.00
10030;DHT22;5055;52.054;8.524;2023-04-24T15:04:07;9.20;97.00
10030;DHT22;5055;52.054;8.524;2023-04-24T15:06:37;9.20;97.00
10030;DHT22;5055;52.054;8.524;2023-04-24T15:09:06;9.20;97.00
10030;DHT22;5055;52.054;8.524;2023-04-24T15:11:35;9.20;97.00
10030;DHT22;5055;52.054;8.524;2023-04-24T15:14:03;9.30;97.00
10030;DHT22;5055;52.054;8.524;2023-04-24T15:16:31;9.30;97.00
10030;DHT22;5055;52.054;8.524;2023-04-24T15:18:59;9.40;97.00
10030;DHT22;5055;52.054;8.524;2023-04-24T15:21:29;9.40;97.00
10030;DHT22;5055;52.054;8.524;2023-04-24T15:24:06;9.40;97.00
10030;DHT22;5055;52.054;8.524;2023-04-24T15:26:38;9.40;97.00
10030;DHT22;5055;52.054;8.524;2023-04-24T15:29:06;9.40;97.00
10030;DHT22;5055;52.054;8.524;2023-04-24T15:31:35;9.40;97.00
10030;DHT22;5055;52.054;8.524;2023-04-24T15:34:12;9.30;97.00
10030;DHT22;5055;52.054;8.524;2023-04-24T15:36:42;9.30;97.00
10030;DHT22;5055;52.054;8.524;2023-04-24T15:39:10;9.30;97.00
10030;DHT22;5055;52.054;8.524;2023-04-24T15:41:39;9.20;97.00
10030;DHT22;5055;52.054;8.524;2023-04-24T15:44:07;9.20;97.00
10030;DHT22;5055;52.054;8.524;2023-04-24T15:46:35;9.20;97.00
10030;DHT22;5055;52.054;8.524;2023-04-24T15:49:03;9.20;97.00
10030;DHT22;5055;52.054;8.524;2023-04-24T15:51:32;9.20;97.00
10030;DHT22;5055;52.054;8.524;2023-04-24T15:54:02;9.20;97.00
10030;DHT22;5055;52.054;8.524;2023-04-24T15:56:30;9.10;97.00
10030;DHT22;5055;52.054;8.524;2023-04-24T15:58:58;9.20;97.00
10030;DHT22;5055;52.054;8.524;2023-04-24T16:01:26;9.10;97.00
10030;DHT22;5055;52.054;8.524;2023-04-24T16:03:54;9.10;97.00
10030;DHT22;5055;52.054;8.524;2023-04-24T16:06:23;9.20;97.00
10030;DHT22;5055;52.054;8.524;2023-04-24T16:08:51;9.20;97.00